Airfield :
LOGIN :

Register | Disclaimer

   EN    FR    IT 

 










Legend :    VFR   Marginal VFR   IFR   Intensive IFR   Very Intensive IFR
Visi :
Ceiling :
>= 8 km
>= 3000ft
5 to 8 km
1000 to 3000 ft
1500m to 5 km
500 to 1000 ft
800 to 1500m
200 to 500 ft
< 800m
< 200 ft
Symbols :   Thunderstorms  Fog  Heavy snow  Heavy precipitations  Wind > 20 kt
SIGMETs :     Misc.  Thunderstorms  Icing  Turbulence  Mountain Waves  Volcanic Ashes






- Airport Elevation : 257 ft
- IATA code : MAN


EGCC - Manchester

CURRENT METAR :
  • 252220Z AUTO 18006KT 130V220 9999 NCD 07/05 Q0992 NOSIG

EXPIRED METARs :
  • 252150Z AUTO 19006KT 140V220 9999 NCD 07/05 Q0992 NOSIG
  • 252120Z AUTO 18005KT 150V220 9999 NCD 07/05 Q0992
  • 252050Z AUTO 18005KT 130V210 9999 NCD 07/05 Q0992 NOSIG
  • 252020Z AUTO 17004KT 110V210 9999 NCD 07/05 Q0992 NOSIG
  • 251950Z AUTO VRB04KT 9999 NCD 07/05 Q0992 NOSIG

TAF TAF EGCC
Valid from the 25 at 18:00 until the 27 at 00:00 UTC


251702Z 2518/2624 19007KT 9999 FEW025
PROB30
TEMPO 2518/2606 7000 SHRA
TEMPO 2606/2618 7000 SHRA
BECMG 2608/2611 27012KT
PROB30
TEMPO 2608/2618 28015G25KT 3000 +SHRA BKN012
PROB30
TEMPO 2618/2624 7000 SHRA
ATIS : +44 161 499 2324



MET'MAP, your aeronautical weather chart ! - Copyright ORBIFLY December 2007 - Disclaimer

ORBIFLY MET'MAP TEAM :

Programming & Development : Alexandra Zaïnal
Concept & original design : Baudouin d'Aumeries
Assistance for programming : Marc-Olivier Méhu
Technical & hardware support : Manuel Goepfert

Contact : metmap@orbifly.com




SOURCES & CREDITS :

   NOAA